Time;durP1;ratioP1;P1;durP2;ratioP2;P2;SDS_P1;SDS_P2;PMS_P1;PMS_P2;Temp;Humidity;BMP_temperature;BMP_pressure;BME280_temperature;BME280_humidity;BME280_pressure;Samples;Min_cycle;Max_cycle;Signal;HPM_P1;HPM_P2
2023/12/29 00:02:28;;;;;;;22.83;3.50;;;9.90;99.90;;;;;;6305886;28;20058;-90
2023/12/29 00:05:30;;;;;;;23.20;3.67;;;9.90;99.90;;;;;;6309138;28;20059;-90
2023/12/29 00:08:32;;;;;;;22.80;4.13;;;9.90;99.90;;;;;;6287024;28;20055;-90
2023/12/29 00:11:34;;;;;;;20.17;3.47;;;10.00;99.90;;;;;;6311975;28;20487;-92
2023/12/29 00:14:35;;;;;;;24.25;3.30;;;10.00;99.90;;;;;;6318379;28;20059;-91
2023/12/29 00:17:39;;;;;;;18.73;3.30;;;10.00;99.90;;;;;;6304930;28;20051;-90
2023/12/29 00:20:41;;;;;;;21.50;4.53;;;10.00;99.90;;;;;;6312151;28;20052;-87
2023/12/29 00:23:43;;;;;;;21.35;3.53;;;10.10;99.90;;;;;;6291243;28;20055;-92
2023/12/29 00:26:45;;;;;;;26.42;3.47;;;10.10;98.70;;;;;;6288924;28;20056;-91
2023/12/29 00:29:47;;;;;;;23.05;3.78;;;10.00;98.10;;;;;;6312072;28;20057;-89
2023/12/29 00:32:49;;;;;;;18.60;3.63;;;10.10;95.60;;;;;;6286713;28;20044;-89
2023/12/29 00:35:51;;;;;;;24.80;4.35;;;10.10;94.50;;;;;;6285212;28;20122;-92
2023/12/29 00:38:52;;;;;;;23.45;3.63;;;10.10;93.90;;;;;;6286779;28;20044;-90
2023/12/29 00:41:54;;;;;;;23.65;3.50;;;10.10;93.50;;;;;;6292858;28;20056;-91
2023/12/29 00:44:56;;;;;;;25.33;4.57;;;9.90;93.70;;;;;;6284303;28;20566;-92
2023/12/29 00:47:58;;;;;;;21.88;3.33;;;9.90;93.40;;;;;;6286496;28;20044;-92
2023/12/29 00:51:00;;;;;;;21.08;3.40;;;9.90;92.90;;;;;;6287407;28;20044;-92
2023/12/29 00:54:02;;;;;;;23.83;3.75;;;9.90;92.70;;;;;;6287935;28;20091;-93
2023/12/29 00:57:03;;;;;;;23.58;3.80;;;9.80;93.30;;;;;;6304176;28;20063;-89
2023/12/29 01:00:05;;;;;;;22.45;3.80;;;9.80;94.30;;;;;;6303407;28;20048;-90
2023/12/29 01:03:07;;;;;;;20.63;3.70;;;9.70;94.20;;;;;;6286601;28;20522;-91
2023/12/29 01:06:09;;;;;;;21.75;3.90;;;9.70;94.90;;;;;;6302643;28;20064;-91
2023/12/29 01:09:11;;;;;;;27.65;3.50;;;9.70;94.30;;;;;;6286761;28;20048;-91
2023/12/29 01:12:15;;;;;;;17.67;3.17;;;9.70;94.20;;;;;;6286132;28;20056;-94
2023/12/29 01:15:17;;;;;;;19.65;3.50;;;9.70;94.00;;;;;;6282268;28;20053;-91
2023/12/29 01:18:21;;;;;;;21.27;3.38;;;9.70;94.30;;;;;;6286822;28;20053;-93
2023/12/29 01:21:22;;;;;;;21.75;3.92;;;9.80;93.00;;;;;;6302080;28;20701;-92
2023/12/29 01:24:24;;;;;;;21.80;3.60;;;9.80;91.90;;;;;;6303104;28;20052;-90
2023/12/29 01:27:36;;;;;;;19.73;3.13;;;9.90;91.50;;;;;;6262174;28;20138;-90
2023/12/29 01:30:38;;;;;;;24.63;3.55;;;9.90;91.20;;;;;;6279171;28;20575;-90
2023/12/29 01:33:40;;;;;;;29.05;4.18;;;9.90;90.50;;;;;;6284156;28;20487;-90
2023/12/29 01:36:42;;;;;;;23.10;3.60;;;9.90;91.40;;;;;;6285119;28;20060;-90
2023/12/29 01:39:44;;;;;;;27.05;3.78;;;10.00;89.10;;;;;;6285195;28;20048;-89
2023/12/29 01:42:45;;;;;;;24.58;3.78;;;9.90;90.60;;;;;;6264230;28;20126;-83
2023/12/29 01:45:48;;;;;;;22.25;3.83;;;9.90;92.20;;;;;;6283649;28;20044;-91
2023/12/29 01:48:58;;;;;;;23.52;3.60;;;9.90;91.10;;;;;;6261927;28;20377;-90
2023/12/29 01:52:00;;;;;;;24.17;3.53;;;10.00;90.90;;;;;;6299905;28;20056;-91
2023/12/29 01:55:02;;;;;;;21.00;3.42;;;10.00;91.20;;;;;;6284514;28;20081;-90
2023/12/29 01:58:03;;;;;;;18.73;3.42;;;10.00;91.20;;;;;;6284295;28;20074;-89
2023/12/29 02:01:06;;;;;;;22.95;3.45;;;10.00;92.00;;;;;;6277173;28;20059;-91
2023/12/29 02:04:08;;;;;;;29.30;3.50;;;10.00;91.90;;;;;;6283409;28;20056;-90
2023/12/29 02:07:10;;;;;;;26.25;3.83;;;10.00;92.10;;;;;;6283248;28;20044;-90
2023/12/29 02:10:15;;;;;;;24.98;3.78;;;9.90;92.80;;;;;;6283648;28;20048;-88
2023/12/29 02:13:17;;;;;;;20.98;3.70;;;10.00;92.60;;;;;;6299503;28;20050;-89
2023/12/29 02:16:19;;;;;;;22.33;3.60;;;10.10;91.20;;;;;;6299990;28;20135;-89
2023/12/29 02:19:21;;;;;;;30.13;4.22;;;10.00;92.50;;;;;;6301257;28;20480;-88
2023/12/29 02:22:22;;;;;;;20.30;3.10;;;10.10;92.20;;;;;;6302557;28;20101;-90
2023/12/29 02:25:24;;;;;;;26.70;4.07;;;10.20;91.60;;;;;;6301219;28;20056;-89
2023/12/29 02:28:26;;;;;;;19.85;3.22;;;10.10;91.50;;;;;;6299121;28;20060;-88
2023/12/29 02:31:28;;;;;;;25.30;3.78;;;10.10;92.80;;;;;;6283643;28;20451;-92
2023/12/29 02:34:30;;;;;;;25.95;4.13;;;10.10;93.30;;;;;;6301912;28;20076;-91
2023/12/29 02:37:32;;;;;;;23.42;3.85;;;10.10;92.50;;;;;;6284614;28;20657;-91
2023/12/29 02:40:34;;;;;;;20.52;3.55;;;10.10;94.30;;;;;;6285054;28;20045;-90
2023/12/29 02:43:35;;;;;;;23.50;3.70;;;10.00;94.10;;;;;;6283103;28;20059;-90
2023/12/29 02:46:37;;;;;;;24.60;3.72;;;10.00;95.30;;;;;;6290066;28;20487;-89
2023/12/29 02:49:39;;;;;;;25.77;3.80;;;10.00;95.60;;;;;;6300398;28;20044;-88
2023/12/29 02:52:41;;;;;;;22.40;4.13;;;10.00;96.50;;;;;;6283926;28;20052;-89
2023/12/29 02:55:42;;;;;;;22.73;3.67;;;10.00;97.50;;;;;;6283576;28;20503;-89
2023/12/29 02:58:45;;;;;;;28.80;4.00;;;10.00;97.50;;;;;;6279719;28;20595;-90
2023/12/29 03:01:47;;;;;;;21.60;3.75;;;10.00;97.40;;;;;;6299840;28;20048;-89
2023/12/29 03:04:49;;;;;;;20.05;3.67;;;10.10;97.70;;;;;;6299795;28;20049;-88
2023/12/29 03:07:51;;;;;;;26.90;3.65;;;10.00;98.00;;;;;;6286462;28;20121;-92
2023/12/29 03:10:52;;;;;;;19.73;3.50;;;10.10;97.80;;;;;;6293436;28;20059;-91
2023/12/29 03:13:54;;;;;;;26.67;3.15;;;10.10;98.80;;;;;;6307329;28;20044;-90
2023/12/29 03:16:57;;;;;;;29.05;4.53;;;10.10;98.20;;;;;;6307102;28;20108;-89
2023/12/29 03:19:59;;;;;;;19.92;3.85;;;10.00;98.50;;;;;;6324295;28;20036;-90
2023/12/29 03:23:01;;;;;;;23.83;3.47;;;10.00;99.20;;;;;;6295212;28;20052;-89
2023/12/29 03:26:03;;;;;;;25.45;3.83;;;10.00;99.70;;;;;;6300818;28;20515;-89
2023/12/29 03:29:04;;;;;;;22.00;3.22;;;10.00;99.50;;;;;;6304034;28;20558;-90
2023/12/29 03:32:07;;;;;;;21.58;3.80;;;10.00;99.70;;;;;;6300288;28;20488;-87
2023/12/29 03:35:08;;;;;;;21.02;3.10;;;10.00;99.70;;;;;;6280765;28;20056;-92
2023/12/29 03:38:10;;;;;;;28.85;3.80;;;10.10;99.70;;;;;;6297286;28;20056;-90
2023/12/29 03:41:12;;;;;;;20.10;3.10;;;10.20;99.40;;;;;;6297571;28;20075;-91
2023/12/29 03:44:13;;;;;;;18.60;2.83;;;10.20;99.90;;;;;;6292983;28;20056;-91
2023/12/29 03:47:15;;;;;;;29.95;4.40;;;10.10;99.90;;;;;;6299227;28;20415;-92
2023/12/29 03:50:17;;;;;;;23.52;3.80;;;10.20;99.90;;;;;;6282616;28;20053;-93
2023/12/29 03:53:19;;;;;;;20.88;3.08;;;10.20;99.90;;;;;;6283492;28;20052;-91
2023/12/29 03:56:20;;;;;;;24.25;4.00;;;10.30;99.90;;;;;;6283649;28;20063;-91
2023/12/29 03:59:22;;;;;;;23.13;3.30;;;10.30;99.90;;;;;;6278166;28;20055;-90
2023/12/29 04:02:24;;;;;;;19.48;3.33;;;10.30;99.90;;;;;;6281961;28;20052;-91
2023/12/29 04:05:25;;;;;;;21.75;4.00;;;10.40;99.90;;;;;;6300806;28;20067;-89
2023/12/29 04:08:27;;;;;;;18.67;3.40;;;10.40;99.90;;;;;;6282565;28;20048;-90
2023/12/29 04:11:29;;;;;;;26.08;3.80;;;10.40;99.90;;;;;;6281400;28;20052;-90
2023/12/29 04:14:31;;;;;;;19.50;3.58;;;10.50;99.90;;;;;;6276400;28;20049;-89
2023/12/29 04:17:33;;;;;;;20.90;3.20;;;10.60;99.90;;;;;;6283099;28;20488;-91
2023/12/29 04:20:35;;;;;;;21.92;3.35;;;10.60;99.90;;;;;;6297718;28;20040;-91
2023/12/29 04:23:36;;;;;;;18.05;2.70;;;10.60;99.90;;;;;;6281352;28;20052;-90
2023/12/29 04:26:38;;;;;;;19.88;3.25;;;10.60;99.90;;;;;;6281707;28;20487;-90
2023/12/29 04:29:40;;;;;;;20.55;3.88;;;10.60;99.90;;;;;;6280613;28;20063;-89
2023/12/29 04:32:41;;;;;;;23.80;3.63;;;10.60;99.90;;;;;;6297574;28;20474;-91
2023/12/29 04:35:43;;;;;;;21.13;3.25;;;10.60;99.90;;;;;;6298580;28;20044;-91
2023/12/29 04:38:45;;;;;;;24.63;3.53;;;10.70;99.90;;;;;;6297751;28;20049;-89
2023/12/29 04:41:46;;;;;;;21.42;3.40;;;10.70;99.90;;;;;;6299344;28;20060;-90
2023/12/29 04:44:48;;;;;;;29.20;3.88;;;10.80;99.20;;;;;;6306010;22;20505;-81
2023/12/29 04:47:49;;;;;;;22.98;3.17;;;10.90;98.40;;;;;;6342810;28;20502;-81
2023/12/29 04:50:51;;;;;;;20.60;3.13;;;10.90;98.60;;;;;;6347167;28;20426;-81
2023/12/29 04:53:53;;;;;;;23.48;2.88;;;10.90;99.10;;;;;;6329043;28;20506;-81
2023/12/29 04:56:55;;;;;;;21.92;3.30;;;10.90;98.90;;;;;;6347610;28;20505;-81
2023/12/29 04:59:56;;;;;;;19.80;2.78;;;10.90;99.00;;;;;;6343936;28;20134;-81
2023/12/29 05:02:58;;;;;;;19.50;3.05;;;10.90;98.80;;;;;;6347485;28;20043;-81
2023/12/29 05:06:00;;;;;;;16.35;2.85;;;10.90;98.30;;;;;;6347401;28;20613;-81
2023/12/29 05:09:02;;;;;;;20.25;3.13;;;10.90;98.70;;;;;;6346421;28;20773;-80
2023/12/29 05:12:04;;;;;;;28.77;3.78;;;10.90;98.90;;;;;;6346950;28;20066;-81
2023/12/29 05:15:05;;;;;;;24.17;3.58;;;10.90;99.50;;;;;;6343963;28;20055;-81
2023/12/29 05:18:07;;;;;;;22.38;3.10;;;10.90;99.90;;;;;;6346811;28;20051;-81
2023/12/29 05:21:08;;;;;;;14.70;2.60;;;11.00;99.90;;;;;;6347000;28;20494;-81
2023/12/29 05:24:10;;;;;;;25.65;3.25;;;10.90;99.90;;;;;;6346810;28;20055;-81
2023/12/29 05:27:12;;;;;;;22.17;3.08;;;10.90;99.90;;;;;;6347067;28;20062;-81
2023/12/29 05:30:13;;;;;;;19.67;3.20;;;10.90;99.90;;;;;;6343902;28;20078;-82
2023/12/29 05:33:15;;;;;;;19.60;2.97;;;10.90;99.90;;;;;;6346609;28;20136;-81
2023/12/29 05:36:17;;;;;;;14.85;2.40;;;10.90;99.90;;;;;;6346738;28;20059;-81
2023/12/29 05:39:19;;;;;;;18.00;3.45;;;10.80;99.90;;;;;;6346281;28;20051;-82
2023/12/29 05:42:21;;;;;;;18.70;3.00;;;10.90;99.90;;;;;;6346295;28;20052;-81
2023/12/29 05:45:23;;;;;;;20.98;3.20;;;10.90;99.90;;;;;;6320805;28;20063;-82
2023/12/29 05:48:24;;;;;;;22.88;3.25;;;10.90;99.90;;;;;;6321436;28;20055;-82
2023/12/29 05:51:26;;;;;;;18.17;3.03;;;10.90;99.90;;;;;;6344901;28;20054;-82
2023/12/29 05:54:28;;;;;;;22.77;3.25;;;10.90;99.90;;;;;;6321206;28;20145;-81
2023/12/29 05:57:29;;;;;;;19.10;3.03;;;10.90;99.90;;;;;;6345628;28;20058;-81
2023/12/29 06:00:31;;;;;;;20.02;3.30;;;10.90;99.90;;;;;;6318352;28;20419;-81
2023/12/29 06:03:33;;;;;;;16.85;2.63;;;10.80;99.90;;;;;;6345206;28;20050;-81
2023/12/29 06:06:34;;;;;;;23.27;2.90;;;10.80;99.90;;;;;;6320960;28;20090;-81
2023/12/29 06:09:36;;;;;;;18.38;2.95;;;10.70;99.90;;;;;;6345250;28;20058;-81
2023/12/29 06:12:38;;;;;;;21.65;2.92;;;10.60;99.90;;;;;;6327338;28;20071;-81
2023/12/29 06:15:39;;;;;;;18.88;2.50;;;10.60;99.90;;;;;;6323486;28;20052;-81
2023/12/29 06:18:41;;;;;;;22.33;3.25;;;10.40;99.90;;;;;;6345096;28;20523;-81
2023/12/29 06:21:43;;;;;;;17.88;2.90;;;10.30;99.90;;;;;;6320253;28;20073;-82
2023/12/29 06:24:45;;;;;;;21.10;2.97;;;10.20;99.90;;;;;;6320284;28;20052;-82
2023/12/29 06:27:47;;;;;;;14.63;2.30;;;10.10;99.90;;;;;;6319899;28;20071;-81
2023/12/29 06:30:48;;;;;;;15.95;2.22;;;10.00;99.90;;;;;;6321911;28;20105;-82
2023/12/29 06:33:50;;;;;;;15.57;2.08;;;10.00;99.90;;;;;;6320287;28;20094;-81
2023/12/29 06:36:52;;;;;;;15.60;2.25;;;10.00;99.90;;;;;;6341107;28;20129;-81
2023/12/29 06:39:53;;;;;;;14.75;2.65;;;9.90;99.90;;;;;;6330034;28;20059;-81
2023/12/29 06:42:55;;;;;;;17.30;2.42;;;10.00;99.90;;;;;;6342334;28;20097;-81
2023/12/29 06:45:57;;;;;;;12.07;2.00;;;9.90;99.90;;;;;;6339941;27;20051;-81
2023/12/29 06:48:58;;;;;;;11.88;1.85;;;9.90;99.90;;;;;;6344661;28;20066;-81
2023/12/29 06:52:00;;;;;;;12.10;2.35;;;9.90;99.90;;;;;;6370252;27;20094;-82
2023/12/29 06:55:02;;;;;;;11.45;1.90;;;9.90;99.90;;;;;;6369947;27;20155;-81
2023/12/29 06:58:04;;;;;;;13.25;2.00;;;9.90;99.90;;;;;;6370013;27;20100;-81
2023/12/29 07:01:05;;;;;;;9.20;1.70;;;10.00;99.90;;;;;;6369520;27;20061;-81
2023/12/29 07:04:10;;;;;;;13.63;1.90;;;10.00;99.90;;;;;;6344402;28;20487;-81
2023/12/29 07:07:11;;;;;;;11.23;1.80;;;9.90;99.90;;;;;;6365305;27;20056;-82
2023/12/29 07:10:13;;;;;;;12.05;1.92;;;10.00;99.90;;;;;;6326553;28;20133;-82
2023/12/29 07:13:15;;;;;;;13.63;2.47;;;10.00;99.90;;;;;;6363264;27;20055;-81
2023/12/29 07:16:19;;;;;;;9.88;1.73;;;10.10;99.90;;;;;;6342921;28;20139;-82
2023/12/29 07:19:21;;;;;;;13.38;2.20;;;10.10;99.90;;;;;;6367739;27;20780;-83
2023/12/29 07:22:23;;;;;;;10.73;1.80;;;10.20;99.90;;;;;;6346235;27;20526;-82
2023/12/29 07:25:24;;;;;;;12.73;2.17;;;10.20;99.90;;;;;;6369220;27;20701;-82
2023/12/29 07:28:26;;;;;;;11.98;1.88;;;10.30;99.90;;;;;;6347437;27;20047;-82
2023/12/29 07:31:28;;;;;;;13.93;2.00;;;10.30;99.90;;;;;;6349485;27;20398;-82
2023/12/29 07:34:31;;;;;;;11.18;2.13;;;10.30;99.90;;;;;;6344183;28;20062;-80
2023/12/29 07:37:33;;;;;;;13.38;1.73;;;10.40;99.90;;;;;;6369073;27;20138;-81
2023/12/29 07:40:34;;;;;;;9.82;1.48;;;10.40;99.90;;;;;;6361100;27;20055;-80
2023/12/29 07:43:36;;;;;;;14.15;2.00;;;10.50;99.90;;;;;;6356965;27;20541;-81
2023/12/29 07:46:37;;;;;;;9.95;1.50;;;10.50;99.90;;;;;;6343287;28;20063;-81
2023/12/29 07:49:39;;;;;;;9.73;1.60;;;10.40;99.90;;;;;;6341204;28;20540;-82
2023/12/29 07:52:41;;;;;;;9.25;1.60;;;10.40;99.90;;;;;;6325227;28;20516;-82
2023/12/29 07:55:43;;;;;;;9.10;1.50;;;10.40;99.10;;;;;;6326290;28;20056;-81
2023/12/29 07:58:45;;;;;;;8.85;1.60;;;10.40;99.80;;;;;;6325663;28;20061;-81
2023/12/29 08:01:49;;;;;;;8.82;1.38;;;10.40;98.50;;;;;;6336826;28;20124;-81
2023/12/29 08:04:50;;;;;;;8.55;1.60;;;10.40;99.80;;;;;;6343319;28;20132;-81
2023/12/29 08:07:52;;;;;;;11.05;1.75;;;10.30;99.80;;;;;;6307258;28;20410;-81
2023/12/29 08:10:53;;;;;;;8.63;1.23;;;10.20;99.90;;;;;;6343025;28;20138;-81
2023/12/29 08:13:55;;;;;;;7.97;1.42;;;10.10;99.90;;;;;;6323026;28;20510;-81
2023/12/29 08:16:57;;;;;;;9.75;1.52;;;10.00;99.90;;;;;;6299958;28;20146;-81
2023/12/29 08:19:58;;;;;;;8.20;1.42;;;10.00;99.80;;;;;;6342234;28;20104;-81
2023/12/29 08:23:02;;;;;;;9.52;1.48;;;10.00;99.90;;;;;;6343479;28;20066;-82
2023/12/29 08:26:04;;;;;;;8.13;1.30;;;9.90;99.90;;;;;;6348051;28;20052;-81
2023/12/29 08:29:06;;;;;;;7.75;1.73;;;9.90;99.90;;;;;;6338678;28;20054;-82
2023/12/29 08:32:07;;;;;;;7.50;1.13;;;9.90;99.90;;;;;;6348116;28;20090;-82
2023/12/29 08:35:09;;;;;;;10.18;1.85;;;9.90;99.90;;;;;;6326582;28;20043;-82
2023/12/29 08:38:11;;;;;;;10.13;1.50;;;10.00;99.90;;;;;;6347849;28;20525;-82
2023/12/29 08:41:13;;;;;;;9.20;1.48;;;10.00;99.90;;;;;;6322864;28;20052;-81
2023/12/29 08:44:14;;;;;;;7.93;1.13;;;10.00;99.90;;;;;;6330679;28;20060;-82
2023/12/29 08:47:16;;;;;;;7.45;1.60;;;10.00;99.90;;;;;;6347272;28;20048;-82
2023/12/29 08:50:18;;;;;;;11.73;1.60;;;10.00;99.90;;;;;;6345637;28;20431;-82
2023/12/29 08:53:19;;;;;;;7.90;1.50;;;10.00;99.90;;;;;;6347421;28;20502;-81
2023/12/29 08:56:21;;;;;;;11.80;1.67;;;10.00;99.90;;;;;;6347599;28;20055;-82
2023/12/29 08:59:26;;;;;;;8.13;1.30;;;10.00;99.90;;;;;;6333597;28;20559;-80
2023/12/29 09:02:27;;;;;;;7.05;1.30;;;10.00;99.90;;;;;;6347789;28;20048;-81
2023/12/29 09:05:29;;;;;;;7.85;1.35;;;10.00;99.90;;;;;;6323263;28;20059;-82
2023/12/29 09:08:30;;;;;;;9.43;1.65;;;10.00;99.90;;;;;;6346831;28;20047;-82
2023/12/29 09:11:32;;;;;;;16.42;2.08;;;10.00;99.90;;;;;;6323045;28;20058;-81
2023/12/29 09:14:34;;;;;;;8.48;1.27;;;10.10;99.90;;;;;;6326457;28;20056;-81
2023/12/29 09:17:36;;;;;;;9.70;1.90;;;10.20;99.90;;;;;;6346719;28;20055;-82
2023/12/29 09:20:37;;;;;;;9.60;1.70;;;10.30;99.90;;;;;;6327261;28;20418;-80
2023/12/29 09:23:40;;;;;;;7.60;1.25;;;10.40;99.90;;;;;;6346913;28;20574;-81
2023/12/29 09:26:42;;;;;;;8.32;1.25;;;10.50;99.90;;;;;;6322115;28;20048;-80
2023/12/29 09:29:43;;;;;;;9.77;1.55;;;10.50;99.90;;;;;;6327026;28;20052;-82
2023/12/29 09:32:45;;;;;;;9.90;1.70;;;10.60;99.90;;;;;;6346538;28;20138;-82
2023/12/29 09:35:47;;;;;;;9.43;1.88;;;10.60;99.90;;;;;;6345562;28;20580;-82
2023/12/29 09:38:48;;;;;;;9.07;1.60;;;10.60;99.90;;;;;;6342742;28;20051;-82
2023/12/29 09:41:50;;;;;;;10.30;1.80;;;10.70;99.90;;;;;;6345928;28;20063;-81
2023/12/29 09:44:52;;;;;;;14.27;1.60;;;10.80;99.90;;;;;;6341123;28;20048;-82
2023/12/29 09:47:54;;;;;;;7.68;1.40;;;10.90;98.70;;;;;;6345718;28;20047;-82
2023/12/29 09:50:56;;;;;;;7.82;1.25;;;11.10;98.70;;;;;;6346263;28;20406;-81
2023/12/29 09:53:58;;;;;;;12.48;1.38;;;11.40;96.90;;;;;;6346727;28;20047;-81
2023/12/29 09:57:00;;;;;;;9.82;1.20;;;11.50;93.70;;;;;;6349144;28;20415;-81
2023/12/29 10:00:01;;;;;;;7.25;1.60;;;11.60;92.90;;;;;;6344328;28;20077;-82
2023/12/29 10:03:03;;;;;;;8.15;1.10;;;11.70;92.90;;;;;;6347421;28;20050;-81
2023/12/29 10:06:05;;;;;;;8.88;2.40;;;11.80;92.10;;;;;;6345572;28;20135;-81
2023/12/29 10:09:07;;;;;;;7.60;1.05;;;12.10;90.80;;;;;;6341830;27;20558;-82
2023/12/29 10:12:08;;;;;;;7.30;1.17;;;12.30;88.30;;;;;;6346275;28;20051;-84
2023/12/29 10:15:10;;;;;;;11.05;1.63;;;12.60;88.40;;;;;;6330012;28;20063;-85
2023/12/29 10:18:12;;;;;;;7.63;1.20;;;12.90;75.10;;;;;;6337883;28;20047;-82
2023/12/29 10:21:13;;;;;;;7.40;1.50;;;13.10;78.90;;;;;;6353762;28;20063;-84
2023/12/29 10:24:15;;;;;;;5.30;1.10;;;13.20;69.00;;;;;;6353459;28;20043;-86
2023/12/29 10:27:17;;;;;;;10.80;1.23;;;13.00;68.80;;;;;;6350299;28;20059;-82
2023/12/29 10:30:19;;;;;;;9.15;1.77;;;12.80;75.00;;;;;;6343926;28;20369;-82
2023/12/29 10:33:32;;;;;;;9.48;1.55;;;12.60;78.80;;;;;;6325084;28;20043;-83
2023/12/29 10:36:34;;;;;;;9.48;1.45;;;12.40;83.30;;;;;;6345362;27;20048;-83
2023/12/29 10:39:39;;;;;;;11.15;1.27;;;12.20;88.30;;;;;;6344899;28;20048;-82
2023/12/29 10:42:40;;;;;;;8.13;1.20;;;12.20;87.40;;;;;;6325412;28;20078;-81
2023/12/29 10:45:42;;;;;;;10.55;2.05;;;12.30;89.20;;;;;;6339364;28;20149;-82
2023/12/29 10:48:44;;;;;;;12.20;2.10;;;12.10;91.10;;;;;;6340611;28;20059;-82
2023/12/29 10:51:46;;;;;;;9.98;2.08;;;12.00;93.30;;;;;;6344754;28;20047;-82
2023/12/29 10:54:48;;;;;;;11.35;2.00;;;11.80;93.80;;;;;;6319875;28;20058;-82
2023/12/29 10:57:50;;;;;;;12.60;2.75;;;11.80;95.00;;;;;;6342610;28;20146;-82
2023/12/29 11:00:52;;;;;;;13.57;2.38;;;11.80;94.70;;;;;;6338222;28;20062;-82
2023/12/29 11:03:53;;;;;;;13.35;2.50;;;11.80;93.60;;;;;;6344114;28;20052;-82
2023/12/29 11:06:55;;;;;;;12.45;1.88;;;11.90;94.60;;;;;;6331417;28;20192;-81
2023/12/29 11:09:57;;;;;;;14.10;2.53;;;11.90;96.60;;;;;;6340687;28;20503;-81
2023/12/29 11:12:59;;;;;;;11.18;2.08;;;11.90;96.00;;;;;;6340446;28;20048;-81
2023/12/29 11:16:01;;;;;;;10.52;2.15;;;11.80;95.20;;;;;;6299447;28;20400;-81
2023/12/29 11:19:03;;;;;;;10.48;2.10;;;11.70;96.30;;;;;;6308486;28;20140;-86
2023/12/29 11:22:06;;;;;;;10.80;2.03;;;11.70;96.60;;;;;;6348723;28;20051;-82
2023/12/29 11:25:07;;;;;;;11.32;2.20;;;11.80;96.60;;;;;;6343574;28;20052;-83
2023/12/29 11:28:09;;;;;;;13.25;2.10;;;12.10;95.50;;;;;;6339383;28;20056;-83
2023/12/29 11:31:11;;;;;;;7.28;1.48;;;12.50;93.50;;;;;;6334365;28;20415;-84
2023/12/29 11:34:13;;;;;;;7.80;1.50;;;13.60;84.20;;;;;;6319937;28;20109;-81
2023/12/29 11:37:14;;;;;;;9.82;1.55;;;13.80;64.50;;;;;;6343178;28;20140;-79
2023/12/29 11:40:16;;;;;;;8.50;1.60;;;13.40;74.60;;;;;;6318854;28;20102;-80
2023/12/29 11:43:18;;;;;;;13.60;1.58;;;13.20;72.00;;;;;;6331477;28;20083;-83
2023/12/29 11:46:20;;;;;;;8.35;1.80;;;13.10;74.50;;;;;;6350546;27;20059;-80
2023/12/29 11:49:21;;;;;;;9.68;1.42;;;12.70;84.50;;;;;;6369100;27;20518;-80
2023/12/29 11:52:23;;;;;;;15.85;1.52;;;12.60;86.40;;;;;;6369129;27;20055;-83
2023/12/29 11:55:25;;;;;;;9.73;2.03;;;12.30;84.00;;;;;;6368157;27;20181;-81
2023/12/29 11:58:28;;;;;;;9.60;1.80;;;12.20;81.10;;;;;;6341608;28;20051;-81
2023/12/29 12:01:31;;;;;;;10.50;2.03;;;12.20;88.20;;;;;;6366949;28;20567;-83
2023/12/29 12:04:33;;;;;;;9.73;1.80;;;12.20;86.80;;;;;;6371033;28;20112;-85
2023/12/29 12:07:35;;;;;;;9.77;2.15;;;12.00;77.40;;;;;;6359108;28;20062;-84
2023/12/29 12:10:40;;;;;;;8.00;2.00;;;12.00;82.00;;;;;;6356306;28;20505;-83
2023/12/29 12:13:41;;;;;;;10.23;2.00;;;12.20;80.90;;;;;;6350100;28;20051;-80
2023/12/29 12:16:44;;;;;;;9.25;1.75;;;12.20;77.30;;;;;;6354099;28;20039;-81
2023/12/29 12:19:47;;;;;;;7.72;1.77;;;12.20;77.60;;;;;;6349239;28;20466;-81
2023/12/29 12:22:48;;;;;;;13.23;2.20;;;12.50;81.40;;;;;;6369131;28;20043;-81
2023/12/29 12:25:50;;;;;;;11.30;2.00;;;12.70;75.10;;;;;;6328418;28;20518;-81
2023/12/29 12:28:51;;;;;;;12.70;2.35;;;13.00;63.50;;;;;;6362785;28;20074;-80
2023/12/29 12:31:53;;;;;;;7.15;1.70;;;13.10;51.70;;;;;;6337379;28;20051;-82
2023/12/29 12:34:55;;;;;;;5.85;1.10;;;13.40;42.50;;;;;;6349419;28;20175;-81
2023/12/29 12:37:57;;;;;;;5.43;1.20;;;13.50;18.20;;;;;;6368152;28;20097;-80
2023/12/29 12:40:59;;;;;;;5.78;1.00;;;13.40;22.00;;;;;;6366349;28;20139;-79
2023/12/29 12:44:00;;;;;;;4.53;1.00;;;13.20;18.30;;;;;;6347176;28;20048;-80
2023/12/29 12:47:02;;;;;;;5.35;0.90;;;13.00;18.70;;;;;;6343776;28;20056;-81
2023/12/29 12:50:03;;;;;;;3.50;0.90;;;12.80;21.00;;;;;;6366676;28;20057;-82
2023/12/29 12:53:09;;;;;;;4.38;1.00;;;12.90;23.30;;;;;;6348542;28;20113;-83
2023/12/29 12:56:11;;;;;;;4.45;0.73;;;13.00;17.90;;;;;;6349845;28;20051;-83
2023/12/29 12:59:12;;;;;;;2.35;0.63;;;13.00;14.90;;;;;;6328983;28;20503;-83
2023/12/29 13:02:14;;;;;;;5.07;0.90;;;12.80;25.10;;;;;;6349710;28;20055;-82
2023/12/29 13:05:16;;;;;;;5.75;1.10;;;12.60;20.40;;;;;;6342680;28;20047;-85
2023/12/29 13:08:18;;;;;;;7.03;1.10;;;12.60;29.40;;;;;;6346782;27;20043;-80
2023/12/29 13:11:34;;;;;;;5.57;0.95;;;12.60;28.20;;;;;;6357384;27;20058;-81
2023/12/29 13:14:36;;;;;;;4.05;1.00;;;12.40;13.80;;;;;;6353447;27;20137;-82
2023/12/29 13:17:38;;;;;;;4.72;0.98;;;12.20;12.30;;;;;;6353717;27;20047;-82
2023/12/29 13:20:39;;;;;;;3.55;0.82;;;12.10;18.60;;;;;;6372316;27;20137;-83
2023/12/29 13:23:41;;;;;;;4.50;1.05;;;12.10;13.00;;;;;;6354059;27;20054;-82
2023/12/29 13:26:42;;;;;;;3.65;0.90;;;12.10;14.70;;;;;;6354074;27;20055;-82
2023/12/29 13:29:45;;;;;;;4.90;0.82;;;12.30;5.40;;;;;;6370797;27;20058;-82
2023/12/29 13:32:46;;;;;;;5.15;1.08;;;12.60;1.00;;;;;;6346883;27;20051;-82
2023/12/29 13:35:49;;;;;;;4.03;0.80;;;12.60;1.00;;;;;;6353943;27;20062;-82
2023/12/29 13:38:59;;;;;;;6.32;1.13;;;12.60;1.20;;;;;;6329644;28;20189;-82
2023/12/29 13:42:00;;;;;;;4.03;0.80;;;12.50;1.00;;;;;;6371379;27;20051;-82
2023/12/29 13:45:02;;;;;;;3.53;0.77;;;12.30;1.00;;;;;;6350292;27;20440;-82
2023/12/29 13:48:04;;;;;;;3.78;0.70;;;12.10;1.00;;;;;;6372328;27;20553;-82
2023/12/29 13:51:05;;;;;;;4.40;0.90;;;12.00;1.00;;;;;;6371815;27;20063;-82
2023/12/29 13:54:09;;;;;;;5.47;0.90;;;12.00;3.50;;;;;;6371562;27;20059;-82
2023/12/29 13:57:10;;;;;;;5.53;1.00;;;12.00;4.50;;;;;;6353687;27;20065;-82
2023/12/29 14:00:12;;;;;;;4.70;1.13;;;11.90;7.80;;;;;;6352916;27;20046;-82
2023/12/29 14:03:14;;;;;;;3.13;0.80;;;11.80;9.50;;;;;;6346504;27;20048;-82
2023/12/29 14:06:18;;;;;;;4.55;0.90;;;11.80;11.20;;;;;;6352824;27;20055;-82
2023/12/29 14:09:20;;;;;;;3.75;0.90;;;11.80;15.20;;;;;;6336290;28;20150;-82
2023/12/29 14:12:21;;;;;;;2.45;0.75;;;11.80;14.00;;;;;;6351820;27;20051;-82
2023/12/29 14:15:23;;;;;;;4.50;0.90;;;11.90;12.40;;;;;;6341868;27;20589;-81
2023/12/29 14:18:25;;;;;;;3.65;0.90;;;11.90;12.10;;;;;;6370328;27;20270;-82
2023/12/29 14:21:26;;;;;;;5.78;1.17;;;11.80;10.00;;;;;;6369622;27;20066;-82
2023/12/29 14:24:28;;;;;;;4.28;1.02;;;11.80;15.40;;;;;;6370753;27;20089;-81
2023/12/29 14:27:30;;;;;;;3.65;0.90;;;11.70;17.50;;;;;;6370896;27;20047;-82
2023/12/29 14:30:33;;;;;;;5.60;1.10;;;11.70;20.00;;;;;;6369820;27;20142;-81
2023/12/29 14:33:36;;;;;;;6.38;0.93;;;11.60;21.80;;;;;;6370522;27;20088;-82
2023/12/29 14:36:38;;;;;;;4.07;0.88;;;11.60;35.40;;;;;;6370540;27;20049;-82
2023/12/29 14:39:40;;;;;;;3.47;0.85;;;11.40;45.00;;;;;;6351844;27;20055;-81
2023/12/29 14:42:41;;;;;;;4.72;1.02;;;11.30;57.60;;;;;;6370025;27;20136;-81
2023/12/29 14:45:43;;;;;;;4.28;1.00;;;11.20;61.60;;;;;;6368234;27;20054;-82
2023/12/29 14:48:45;;;;;;;6.63;1.10;;;11.10;70.00;;;;;;6346053;27;20051;-81
2023/12/29 14:51:46;;;;;;;4.07;0.95;;;11.10;73.40;;;;;;6370890;27;20075;-82
2023/12/29 14:54:49;;;;;;;3.00;0.90;;;11.00;75.20;;;;;;6352594;27;20082;-81
2023/12/29 14:57:50;;;;;;;4.43;1.10;;;11.00;78.80;;;;;;6346421;27;20146;-82
2023/12/29 15:00:53;;;;;;;5.43;1.17;;;11.00;81.80;;;;;;6379173;27;20059;-81
2023/12/29 15:03:54;;;;;;;3.88;1.05;;;11.00;83.60;;;;;;6377291;27;20080;-81
2023/12/29 15:06:56;;;;;;;5.15;1.02;;;10.90;79.20;;;;;;6371241;27;20051;-81
2023/12/29 15:09:58;;;;;;;6.80;1.10;;;10.90;79.00;;;;;;6351120;27;20058;-82
2023/12/29 15:13:00;;;;;;;3.75;0.80;;;10.90;70.60;;;;;;6347438;27;20118;-83
2023/12/29 15:16:01;;;;;;;2.88;0.70;;;10.90;60.70;;;;;;6352332;27;20089;-81
2023/12/29 15:19:05;;;;;;;4.85;0.85;;;10.90;56.10;;;;;;6343294;27;20047;-83
2023/12/29 15:22:07;;;;;;;3.08;0.65;;;10.90;57.40;;;;;;6349392;27;20077;-88
2023/12/29 15:25:08;;;;;;;5.82;1.08;;;10.90;53.40;;;;;;6357182;27;20137;-79
2023/12/29 15:28:10;;;;;;;3.90;1.10;;;10.90;54.90;;;;;;6329082;27;20055;-80
2023/12/29 15:31:14;;;;;;;3.88;1.00;;;10.80;56.30;;;;;;6369546;27;20055;-78
2023/12/29 15:34:15;;;;;;;5.05;1.10;;;10.70;54.90;;;;;;6344572;28;20051;-88
2023/12/29 15:37:21;;;;;;;3.67;0.85;;;10.70;59.00;;;;;;6368221;27;20043;-82
2023/12/29 15:40:23;;;;;;;4.75;0.90;;;10.70;62.70;;;;;;6368940;27;20472;-81
2023/12/29 15:43:29;;;;;;;4.78;1.08;;;10.70;59.80;;;;;;6346864;27;20134;-80